Tiempo atmosférico en la estación meteorológica de León Aeropuerto, León (916 m.)



Fecha
DESCASC
Temp. máxima en grados centígrados (hora)
DESCASC
Temp. mínima en grados centígrados (hora)
DESCASC
Temp. media en grados centígrados
DESCASC
Racha de viento máxima en m/sg (hora)
DESCASC
Velocidad máxima media en intervalos de 10 minutos(hora)
DESCASC
Precipitaciones diarias en mm
DESCASC
Precipitaciones de 00:00 a 06:00 en mm
DESCASC
Precipitaciones de 06:00 a 12:00 en mm
DESCASC
Precipitaciones de 12:00 a 18:00 en mm
DESCASC
Precipitaciones de 18:00 a 24:00 en mm
DESCASC

Gráficas

Temp. máximas Temp. mínimas Temp. medias Precipitaciones Rachas de viento máximas Velocidades máximas media en intervalos de 10 minutos

Datos horarios

Fecha y hora oficial Temperatura (ºC) Velocidad del viento (km/h) Dirección del viento Racha (km/h) Dirección de racha Precipitación (mm) Presión (hPa) Tendencia (hPa) Humedad (%)
2019-06-15 23:00:00 15.3 9 Norte 18 Oeste 0 915.1 0.8 51
2019-06-15 22:00:00 18.9 7 Sudeste 17 Sudeste 0 914.5 0.2 31
2019-06-15 21:00:00 20.8 13 Sudeste 18 Sudeste 0 914.3 -0.4 28
2019-06-15 20:00:00 21.2 11 Sur 22 Sur 0 914.3 -0.6 27
2019-06-15 19:00:00 21.2 10 Sudoeste 24 Sudoeste 0 914.3 -0.9 28
2019-06-15 18:00:00 20.8 7 Sur 24 Sudoeste 0 914.7 -0.7 29
2019-06-15 17:00:00 19.8 9 Sur 30 Oeste 0 914.9 -0.8 30
2019-06-15 16:00:00 18.8 12 Sur 26 Sur 0 915.2 -0.4 33
2019-06-15 15:00:00 17.7 14 Sur 33 Oeste 0 915.4 -0.2 35
2019-06-15 14:00:00 17 13 Oeste 22 Oeste 0 915.7 0.3 39
2019-06-15 13:00:00 15.9 14 Sudoeste 30 Sudoeste 0 915.6 0.3 42
2019-06-15 12:00:00 13.9 15 Sudoeste 24 Sudoeste 0 915.6 0.6 48
2019-06-15 11:00:00 13.5 7 Oeste 18 Sudoeste 0 915.4 1 47
2019-06-15 10:00:00 12.2 6 Noroeste 18 Oeste 0 915.3 1.4 54
2019-06-15 09:00:00 10.6 4 Nordeste 8 Nordeste 0 915 1.5 65
2019-06-15 08:00:00 7.4 3 Noroeste 9 Norte 0 914.4 1.1 76
2019-06-15 07:00:00 6.4 3 Nordeste 9 Noroeste 0 913.9 0.6 80
2019-06-15 06:00:00 5.9 9 Noroeste 13 Noroeste 0 913.5 0.3 82
2019-06-15 05:00:00 6.9 11 Noroeste 17 Oeste 0 913.3 0.6 78
2019-06-15 04:00:00 7.3 7 Noroeste 15 Noroeste 0 913.3 0.6 77
2019-06-15 03:00:00 7.8 8 Oeste 15 Oeste 0 913.2 1 76
2019-06-15 02:00:00 8.6 9 Noroeste 15 Noroeste 0 912.7 1.3 73
2019-06-15 01:00:00 10.5 9 Oeste 13 Oeste 0 912.7 2.3 66
2019-06-15 00:00:00 11.5 4 Noroeste 11 Noroeste 0 912.2 2.9 66
2019-06-14 23:00:00 12 7 Norte 13 Norte 0 911.4 3.3 65
2019-06-14 22:00:00 13.3 9 Norte 15 Norte 0 910.4 3 60
2019-06-14 21:00:00 14.8 9 Noroeste 33 Oeste 0 909.3 2.1 54
2019-06-14 20:00:00 18.5 23 Oeste 41 Oeste 0 908.1 1 32
2019-06-14 19:00:00 19.1 26 Oeste 42 Sudoeste 0 907.4 0.1 34
2019-06-14 18:00:00 20.6 18 Sudoeste 39 Sudoeste 0 907.2 -0.2 31
2019-06-14 17:00:00 20 13 Oeste 35 Sur 0 907.1 -0.5 27
2019-06-14 16:00:00 20.3 19 Sudoeste 33 Sudoeste 0 907.3 -0.4 29
2019-06-14 15:00:00 19.7 15 Sudoeste 32 Oeste 0 907.4 -0.5 28
2019-06-14 14:00:00 18.8 14 Sudoeste 28 Sudoeste 0 907.6 -0.4 32
2019-06-14 13:00:00 17.2 12 Sur 24 Sudoeste 0 907.7 -0.4 37
2019-06-14 12:00:00 16.7 5 Sur 15 Sudoeste 0 907.9 0 44
2019-06-14 11:00:00 15.1 4 Sur 15 Sudeste 0 908 0.1 50
2019-06-14 10:00:00 13.4 4 Sudeste 13 Norte 0 908.1 0.1 56
2019-06-14 09:00:00 10.7 5 Norte 9 Nordeste 0 907.9 0 69
2019-06-14 08:00:00 7.1 4 Noroeste 13 Noroeste 0 907.9 0.1 80
2019-06-14 07:00:00 4.9 9 Noroeste 13 Noroeste 0 908 0.1 85
2019-06-14 06:00:00 4.8 5 Noroeste 9 Noroeste 0 907.9 -0.1 81
2019-06-14 05:00:00 5.4 6 Norte 9 Norte 0 907.8 -0.4 81
2019-06-14 04:00:00 5.9 5 Norte 11 Norte 0 907.9 -0.2 81
2019-06-14 03:00:00 6.3 8 Norte 11 Norte 0 908 -0.2 82
2019-06-14 02:00:00 7.9 10 Nordeste 17 Este 0 908.2 0.3 76
2019-06-14 01:00:00 7.5 9 Noroeste 17 Norte 0 908.1 1.1 77
2019-06-14 00:00:00 8.8 9 Norte 13 Norte 0 908.2 2.1 73
2019-06-13 23:00:00 10.7 4 Noroeste 17 Noroeste 0 907.9 2.5 66
2019-06-13 22:00:00 14.5 13 Noroeste 28 Oeste 0 907 1.9 48
2019-06-13 21:00:00 17.7 20 Oeste 33 Oeste 0 906.1 1.1 35
2019-06-13 20:00:00 19.4 21 Oeste 32 Sudoeste 0 905.4 0.2 31
2019-06-13 19:00:00 19.4 21 Sudoeste 42 Sudoeste 0 905.1 -0.4 22
2019-06-13 18:00:00 20.5 22 Sudoeste 37 Sudoeste 0 905 -0.8 22
2019-06-13 17:00:00 19.9 18 Sur 41 Sudoeste 0 905.2 -1 25
2019-06-13 16:00:00 18.5 17 Sur 42 Sudoeste 0 905.5 -0.6 31
2019-06-13 15:00:00 17.7 9 Sur 32 Sudoeste 0 905.8 -0.6 33
2019-06-13 14:00:00 17 20 Sudoeste 35 Sudoeste 0 906.2 -0.2 35
2019-06-13 13:00:00 16.5 13 Sudoeste 28 Sudoeste 0 906.1 -0.6 40
2019-06-13 12:00:00 14.8 11 Sur 21 Sudeste 0 906.4 -0.2 47
2019-06-13 11:00:00 13.2 4 Sur 15 Sur 0 906.4 -0.1 53
2019-06-13 10:00:00 12.2 5 Sudeste 9 Sudeste 0 906.7 0.2 56
2019-06-13 09:00:00 10.4 4 Este 8 Este 0 906.6 0.2 65
2019-06-13 08:00:00 6.3 3 Noroeste 9 Norte 0 906.5 -0.1 79
2019-06-13 07:00:00 3.5 8 Noroeste 11 Noroeste 0 906.5 -0.2 85
2019-06-13 06:00:00 3.6 8 Noroeste 13 Norte 0 906.4 -0.7 83
2019-06-13 05:00:00 4.4 5 Noroeste 13 Norte 0 906.6 -0.7 80
2019-06-13 04:00:00 5.2 10 Norte 15 Norte 0 906.7 -0.9 82
2019-06-13 03:00:00 6.1 5 Norte 11 Norte 0 907.1 -0.5 79
2019-06-13 02:00:00 7.1 6 Nordeste 18 Norte 0 907.3 -0.3 77
2019-06-13 01:00:00 7.3 11 Norte 15 Norte 0 907.6 0.6 75
2019-06-13 00:00:00 8.1 9 Norte 17 Noroeste 0 907.6 1.1 71
2019-06-12 23:00:00 10 13 Norte 21 Norte 0 907.6 1 65
2019-06-12 22:00:00 12.9 13 Norte 30 Noroeste 0 907 0.1 52
2019-06-12 21:00:00 17.8 13 Sudeste 22 Sudeste 0 906.5 -1.1 27
2019-06-12 20:00:00 17.1 10 Sudoeste 24 Sur 0 906.6 -1.3 26
2019-06-12 19:00:00 17.4 10 Sudoeste 24 Sur 0 906.9 -1.2 26
2019-06-12 18:00:00 16.8 13 Sur 28 Sudoeste 0 907.6 -1.3 27
2019-06-12 17:00:00 17.7 10 Sur 39 Sudoeste 0 907.9 -1.5 25
2019-06-12 16:00:00 16.9 13 Sur 30 Sur 0 908.1 -1.7 25
2019-06-12 15:00:00 15.7 10 Sudoeste 30 Sudoeste 0 908.9 -1.2 28
2019-06-12 14:00:00 14.2 9 Sudeste 24 Sudoeste 0 909.4 -1 33
2019-06-12 13:00:00 14.1 8 Sur 21 Sur 0 909.8 -0.8 36
2019-06-12 12:00:00 12.6 6 Sur 17 Sur 0 910.1 -0.5 40
2019-06-12 11:00:00 11 10 Sudoeste 18 Oeste 0 910.4 -0.1 47
2019-06-12 10:00:00 9.2 11 Oeste 21 Oeste 0 910.6 0.3 56
2019-06-12 09:00:00 7.6 10 Oeste 15 Oeste 0 910.6 0.3 63
2019-06-12 08:00:00 5.1 8 Norte 13 Norte 0 910.5 -0.2 71
2019-06-12 07:00:00 1.6 10 Noroeste 15 Noroeste 0 910.3 -0.6 77
2019-06-12 06:00:00 3 10 Oeste 18 Oeste 0 910.3 -1 74
2019-06-12 05:00:00 3.4 12 Oeste 21 Noroeste 0 910.7 -0.9 76
2019-06-12 04:00:00 3.9 15 Noroeste 22 Oeste 0 910.9 -1 74
2019-06-12 03:00:00 4.2 7 Norte 26 Noroeste 0 911.3 -1 73
2019-06-12 02:00:00 5.4 17 Noroeste 24 Oeste 0 911.6 -0.9 68
2019-06-12 01:00:00 5.7 13 Noroeste 18 Oeste 0 911.9 -0.2 69
2019-06-12 00:00:00 6.2 3 Nordeste 13 Noroeste 0 912.3 -0.1 66
2019-06-11 23:00:00 7.5 9 Noroeste 26 Noroeste 0 912.5 0.4 59
2019-06-11 22:00:00 9.3 16 Noroeste 32 Noroeste 0 912.1 0.2 52
2019-06-11 21:00:00 11.6 16 Norte 28 Norte 0 912.4 0.7 51
2019-06-11 20:00:00 12.2 19 Norte 41 Norte 0 912.1 0.2 49
2019-06-11 19:00:00 13.6 25 Norte 42 Norte 0 911.9 -0.1 42
2019-06-11 18:00:00 13.9 26 Norte 46 Norte 0 911.7 -0.2 39
2019-06-11 17:00:00 13.6 18 Norte 48 Norte 0 911.9 -0.1 42
2019-06-11 16:00:00 14.4 22 Norte 52 Nordeste 0 912 0.2 35
2019-06-11 15:00:00 13.9 30 Norte 50 Norte 0 911.9 0 37
2019-06-11 14:00:00 13.4 26 Norte 50 Norte 0 912 0.3 39
2019-06-11 13:00:00 12.9 24 Norte 42 Norte 0 911.8 0.2 41
2019-06-11 12:00:00 12.1 24 Norte 39 Norte 0 911.9 0.6 43
2019-06-11 11:00:00 11.2 26 Norte 42 Norte 0 911.7 0.8 45
2019-06-11 10:00:00 9.8 14 Norte 28 Nordeste 0 911.6 0.9 53
2019-06-11 09:00:00 8.8 13 Norte 35 Norte 0 911.3 0.8 59
2019-06-11 08:00:00 7.1 16 Norte 35 Norte 0 910.9 0.4 66
2019-06-11 07:00:00 4.5 5 Oeste 11 Oeste 0 910.7 -0.2 79
2019-06-11 06:00:00 4.8 0 Calma 13 Noroeste 0 910.5 -0.6 76
2019-06-11 05:00:00 5.8 9 Oeste 15 Noroeste 0 910.5 -0.8 71
2019-06-11 04:00:00 6.9 5 Norte 13 Norte 0 910.9 -0.6 70
2019-06-11 03:00:00 7.4 12 Noroeste 21 Norte 0 911.1 -0.6 71
2019-06-11 02:00:00 9.1 12 Norte 28 Norte 0 911.3 -0.4 68
2019-06-11 01:00:00 9.3 16 Norte 32 Norte 0 911.5 0.4 66
2019-06-11 00:00:00 10 16 Norte 32 Noroeste 0 911.7 0.7 62
2019-06-10 23:00:00 10.7 15 Norte 28 Norte 0 911.7 0.8 64
2019-06-10 22:00:00 12.5 14 Norte 28 Noroeste 0 911.1 0.4 58
2019-06-10 21:00:00 13.3 13 Norte 28 Norte 0 911 -0.1 57
2019-06-10 20:00:00 16 14 Norte 24 Norte 0 910.9 -0.7 42
2019-06-10 19:00:00 17 14 Noroeste 26 Oeste 0 910.7 -1.2 38
2019-06-10 18:00:00 17 16 Oeste 28 Oeste 0 911.1 -1.3 36
2019-06-10 17:00:00 18.3 14 Noroeste 32 Oeste 0 911.6 -1.6 33
2019-06-10 16:00:00 18.9 17 Oeste 30 Oeste 0 911.9 -1.7 31
2019-06-10 15:00:00 17.5 13 Oeste 35 Oeste 0 912.4 -1.7 30
2019-06-10 14:00:00 17 14 Sudoeste 32 Sudoeste 0 913.2 -1.3 30
2019-06-10 13:00:00 15.4 13 Sudoeste 24 Sudoeste 0 913.6 -1.2 39
2019-06-10 12:00:00 13.9 6 Nordeste 17 Sur 0 914.1 -0.6 49
2019-06-10 11:00:00 12 5 Este 13 Este 0 914.5 -0.2 55
2019-06-10 10:00:00 10.5 6 Sudeste 11 Sudeste 0 914.8 0.4 60
2019-06-10 09:00:00 8 7 Este 13 Este 0 914.7 0.5 72
2019-06-10 08:00:00 5.4 2 Este 5 Este 0 914.7 0.2 83
2019-06-10 07:00:00 3.9 4 Noroeste 11 Nordeste 0 914.4 -0.6 85
2019-06-10 06:00:00 3.8 10 Noroeste 13 Noroeste 0 914.2 -1.2 86
2019-06-10 05:00:00 4.4 7 Norte 11 Noroeste 0 914.5 -1.2 84
2019-06-10 04:00:00 5 8 Noroeste 11 Noroeste 0 915 -0.8 81
2019-06-10 03:00:00 5.6 8 Noroeste 15 Noroeste 0 915.4 -0.2 80
2019-06-10 02:00:00 6 11 Noroeste 15 Norte 0 915.7 0.4 80
2019-06-10 01:00:00 7.5 10 Norte 17 Norte 0 915.8 1.7 75
2019-06-10 00:00:00 8.9 10 Norte 17 Norte 0 915.6 2.1 71
2019-06-09 23:00:00 9.8 8 Norte 26 Norte 0 915.3 -- 68
2019-06-09 22:00:00 11 15 Norte 30 Norte 0 914.1 2 63
2019-06-09 21:00:00 13.7 21 Norte -- -- -- 913.5 1.7 54
2019-06-09 20:00:00 -- -- -- -- -- -- -- -- --
2019-06-09 19:00:00 16.8 22 Norte 33 Norte 0 912.1 0.3 48
2019-06-09 18:00:00 18.9 18 Norte 35 Oeste 0 911.8 -0.3 42
2019-06-09 17:00:00 19.4 14 Oeste 37 Oeste 0 911.8 -0.7 28
2019-06-09 16:00:00 20.3 19 Oeste 37 Oeste 0 911.8 -1 29
2019-06-09 15:00:00 19.2 24 Sudoeste 37 Sudoeste 0 912.1 -0.9 31
2019-06-09 14:00:00 18.4 17 Oeste 35 Oeste 0 912.5 -0.6 36
2019-06-09 13:00:00 16.9 15 Sudoeste 32 Oeste 0 912.8 -0.4 42
2019-06-09 12:00:00 15.3 12 Sudoeste 28 Oeste 0 913 -0.4 56
2019-06-09 11:00:00 14.3 6 Sudoeste 17 Sudoeste 0 913.1 0.1 60
2019-06-09 10:00:00 12.9 5 Sur 13 Sur 0 913.2 0.3 63
2019-06-09 09:00:00 10.5 0 Calma 9 Nordeste 0 913.4 0.5 72
2019-06-09 08:00:00 8 5 Nordeste 9 Norte 0 913 0.2 80
2019-06-09 07:00:00 6.5 5 Norte 8 Norte 0 912.9 -0.1 84
2019-06-09 06:00:00 6.7 6 Noroeste 8 Noroeste 0 912.9 -0.6 81
2019-06-09 05:00:00 7.2 2 Norte 9 Oeste 0 912.8 -1 79
2019-06-09 04:00:00 8.2 4 Norte 9 Norte 0 913 -1 77
2019-06-09 03:00:00 8.4 8 Norte 11 Norte 0 913.5 -0.7 75
2019-06-09 02:00:00 9.7 0 Calma 13 Norte 0 913.8 0 71
2019-06-09 01:00:00 11.3 9 Oeste 17 Oeste 0 914 0.6 64
2019-06-09 00:00:00 12.6 9 Oeste 17 Nordeste 0 914.2 1.3 61
2019-06-08 23:00:00 13 11 Norte 24 Norte 0 913.8 0.7 59
2019-06-08 22:00:00 14.8 8 Norte 22 Norte 0 913.4 0.1 49
2019-06-08 21:00:00 18.6 5 Norte 13 Oeste 0 912.9 -0.9 28
2019-06-08 20:00:00 19.4 6 Sur 22 Sur 0 913.1 -1.1 26
2019-06-08 19:00:00 20 8 Sudoeste 21 Sur 0 913.3 -1.5 25
2019-06-08 18:00:00 19.1 14 Sudoeste 26 Sudoeste 0 913.8 -1.5 29
2019-06-08 17:00:00 19.1 9 Sudoeste 30 Sudoeste 0 914.2 -1.8 28
2019-06-08 16:00:00 18.7 15 Sur 30 Sudeste 0 914.8 -1.9 28
2019-06-08 15:00:00 17.7 8 Sudeste 30 Sur 0 915.3 -1.8 32
2019-06-08 14:00:00 16.2 11 Sur 24 Sur 0 916 -1.5 39
2019-06-08 13:00:00 15.4 11 Este 21 Este 0 916.7 -1.1 42
2019-06-08 12:00:00 13.7 8 Este 18 Este 0 917.1 -0.8 51
2019-06-08 11:00:00 11.4 7 Este 17 Nordeste 0 917.5 -0.2 61
2019-06-08 10:00:00 8.7 11 Nordeste 17 Nordeste 0 917.8 0.3 71
2019-06-08 09:00:00 7.1 5 Norte 9 Nordeste 0 917.9 0.5 79
2019-06-08 08:00:00 5.6 7 Norte 13 Norte 0 917.7 0.4 83
2019-06-08 07:00:00 3 10 Norte 13 Norte 0 917.5 0.4 88
2019-06-08 06:00:00 2.7 10 Norte 13 Norte 0 917.4 0.1 88
2019-06-08 05:00:00 3.1 9 Norte 11 Norte 0 917.3 -0.1 84
2019-06-08 04:00:00 3.2 4 Norte 9 Norte 0 917.1 -0.3 84
2019-06-08 03:00:00 4 2 Norte 17 Noroeste 0 917.3 0.3 83
2019-06-08 02:00:00 4.5 13 Noroeste 17 Noroeste 0 917.4 0.9 81
2019-06-08 01:00:00 5.3 10 Noroeste 18 Noroeste 0 917.4 1.6 77
2019-06-08 00:00:00 6.3 13 Noroeste 21 Oeste 0 917 1.5 75
2019-06-07 23:00:00 7.5 12 Oeste 18 Noroeste 0 916.5 1.7 70
2019-06-07 22:00:00 9.5 8 Oeste 24 Oeste 0 915.8 1.5 62
2019-06-07 21:00:00 11.2 18 Oeste 41 Oeste 0 915.5 1.5 54
2019-06-07 20:00:00 12.3 34 Oeste 54 Oeste 0 914.8 1.3 51
2019-06-07 19:00:00 14.1 27 Oeste 45 Oeste 0 914.3 1.2 34
2019-06-07 18:00:00 13.9 26 Oeste 48 Oeste 0 914 1.2 43
2019-06-07 17:00:00 13.8 27 Oeste 41 Oeste 0 913.5 1 42
2019-06-07 16:00:00 14.6 29 Oeste 50 Oeste 0 913.1 1.2 36
2019-06-07 15:00:00 13.5 26 Oeste 46 Oeste 0 912.8 1.9 43
2019-06-07 14:00:00 12.1 31 Oeste 48 Oeste 0 912.5 2.3 50
2019-06-07 13:00:00 11.6 32 Oeste 50 Oeste 0 911.9 2.5 54
2019-06-07 12:00:00 10.5 30 Oeste 45 Oeste 0 910.9 2.6 58
2019-06-07 11:00:00 9.3 25 Oeste 42 Oeste 0 910.2 2.9 62
2019-06-07 10:00:00 7.9 24 Oeste 46 Oeste 0 909.4 3.1 71
2019-06-07 09:00:00 6.8 24 Oeste 45 Oeste 0 908.3 3.1 74
2019-06-07 08:00:00 5.7 27 Oeste 45 Oeste 0 907.3 2.3 78
2019-06-07 07:00:00 4.8 28 Oeste 46 Sudoeste 0 906.3 2.2 83
2019-06-07 06:00:00 4.8 25 Oeste 45 Oeste 0 905.2 2 84
2019-06-07 05:00:00 5.3 30 Oeste 46 Oeste 0 905 2.2 85
2019-06-07 04:00:00 5.7 24 Oeste 37 Oeste 0 904.1 1.6 81
2019-06-07 03:00:00 5.7 23 Oeste 41 Oeste 0 903.2 1 83
2019-06-07 02:00:00 6.4 19 Sudoeste 30 Sudoeste 0 902.8 1.6 85
2019-06-07 01:00:00 7.3 19 Sudoeste 28 Sudoeste 0 902.5 1.4 81
2019-06-07 00:00:00 7.3 19 Oeste 42 Oeste 0 902.2 1.8 84
2019-06-06 23:00:00 7.7 15 Oeste 32 Oeste 0 901.2 1.1 83
2019-06-06 22:00:00 9.4 15 Oeste 42 Sudoeste 0.7 901.1 0.4 89
2019-06-06 21:00:00 10.6 29 Sudoeste 50 Sudoeste 2.2 900.4 0 91
2019-06-06 20:00:00 10.7 26 Sur 42 Sudoeste 0.9 900.1 -1.2 89
2019-06-06 19:00:00 11.8 26 Sudoeste 54 Sudoeste 0.2 900.7 -1.6 78
2019-06-06 18:00:00 14.5 39 Sudoeste 59 Sudoeste 0 900.4 -2.8 51
2019-06-06 17:00:00 15.3 29 Sur 50 Sur 0 901.3 -3.1 37
2019-06-06 16:00:00 15.1 32 Sur 54 Sudoeste 0 902.3 -3.2 37
2019-06-06 15:00:00 15.2 33 Sur 55 Sur 0 903.2 -3.1 36
2019-06-06 14:00:00 12.9 32 Sur 46 Sur 0 904.4 -2.8 45
2019-06-06 13:00:00 12.9 24 Sur 39 Sur 0 905.5 -2.4 45
2019-06-06 12:00:00 11.5 19 Sur 30 Sudeste 0 906.3 -2 51
2019-06-06 11:00:00 9.8 16 Sudeste 26 Sur 0 907.2 -1.4 57
2019-06-06 10:00:00 7.9 9 Sudeste 15 Sudeste 0 907.9 -1 66
2019-06-06 09:00:00 5.6 5 Nordeste 11 Nordeste 0 908.3 -0.8 77
2019-06-06 08:00:00 4.3 6 Norte 13 Norte 0 908.6 -0.5 76
2019-06-06 07:00:00 1.3 9 Norte 13 Norte 0 908.9 -0.6 85
2019-06-06 06:00:00 1.8 6 Noroeste 11 Norte 0 909.1 -0.7 81
2019-06-06 05:00:00 2.7 4 Norte 11 Norte 0 909.1 -0.9 82
2019-06-06 04:00:00 3.2 7 Noroeste 15 Noroeste 0 909.5 -0.6 82
2019-06-06 03:00:00 4 11 Oeste 15 Noroeste 0 909.8 -0.3 79
2019-06-06 02:00:00 5.3 9 Oeste 15 Noroeste 0 910 0.1 75
2019-06-06 01:00:00 7.2 7 Oeste 13 Noroeste 0 910.1 0.4 66
2019-06-06 00:00:00 7.7 7 Oeste 21 Noroeste 0 910.1 0.7 66
2019-06-05 23:00:00 8.2 15 Oeste 24 Oeste 0 909.9 1.1 64
2019-06-05 22:00:00 9 13 Oeste 33 Noroeste 0 909.7 1 59
2019-06-05 21:00:00 10 21 Oeste 41 Oeste 0 909.4 0.8 59
2019-06-05 20:00:00 13.4 25 Oeste 41 Oeste 0 908.8 0.4 44
2019-06-05 19:00:00 13.6 24 Oeste 48 Oeste 0 908.7 0.1 47
2019-06-05 18:00:00 13.8 29 Oeste 46 Oeste 0 908.6 0.2 43
2019-06-05 17:00:00 15.2 28 Oeste 46 Oeste 0 908.4 -0.1 35
2019-06-05 16:00:00 13 30 Oeste 59 Oeste 0 908.6 0.3 39
2019-06-05 15:00:00 15.5 31 Oeste 54 Sudoeste 0 908.4 0.3 36
2019-06-05 14:00:00 13.9 28 Oeste 50 Sudoeste 0 908.5 0.5 45
2019-06-05 13:00:00 13.5 18 Oeste 41 Oeste 0 908.3 0.4 46
2019-06-05 12:00:00 12.3 28 Oeste 45 Oeste 0 908.1 0.7 52
2019-06-05 11:00:00 12 16 Oeste 35 Sudoeste 0 908 0.9 51
2019-06-05 10:00:00 9.7 18 Oeste 33 Oeste 0 907.9 1.4 63
2019-06-05 09:00:00 9.5 14 Oeste 26 Oeste 0 907.4 1.1 64
2019-06-05 08:00:00 6.5 13 Oeste 21 Oeste 0 907.1 0.8 77
2019-06-05 07:00:00 5.6 11 Oeste 22 Noroeste 0 906.5 0 81
2019-06-05 06:00:00 5.3 12 Oeste 17 Oeste 0 906.3 -0.4 82
2019-06-05 05:00:00 5.2 13 Noroeste 17 Noroeste 0 906.3 -0.6 81
2019-06-05 04:00:00 6 11 Oeste 18 Noroeste 0 906.5 -0.4 78
2019-06-05 03:00:00 6 12 Noroeste 17 Noroeste 0 906.7 0.1 78
2019-06-05 02:00:00 7.4 7 Noroeste 15 Oeste 0 906.9 0.3 75
2019-06-05 01:00:00 8.6 10 Oeste 17 Oeste 0 906.9 0.8 71
2019-06-05 00:00:00 10.2 13 Noroeste 30 Noroeste 0 906.6 0.6 64
2019-06-04 23:00:00 11.4 19 Oeste 28 Oeste 0 906.6 0.5 60
2019-06-04 22:00:00 13 11 Oeste 22 Oeste 0 906.1 -0.3 51
2019-06-04 21:00:00 15.7 14 Oeste 33 Oeste 0 906 -0.7 42
2019-06-04 20:00:00 16.6 23 Oeste 39 Oeste 0 906.1 -0.6 40
2019-06-04 19:00:00 16.2 21 Oeste 37 Oeste 0 906.4 0.3 44
2019-06-04 18:00:00 16.6 27 Oeste 45 Oeste 0 906.7 0.5 41
2019-06-04 17:00:00 16.3 27 Oeste 48 Oeste 0 906.7 0.1 50
2019-06-04 16:00:00 17.3 31 Oeste 46 Oeste 0 906.1 -0.7 52
2019-06-04 15:00:00 18.9 10 Sudoeste 24 Oeste 0 906.2 -0.7 49
2019-06-04 14:00:00 17.3 17 Oeste 32 Oeste 0 906.6 -0.4 55
2019-06-04 13:00:00 17.9 11 Sudoeste 26 Oeste 0 906.8 -0.4 50
2019-06-04 12:00:00 17.8 10 Sudoeste 33 Oeste 0 906.9 -0.2 50
2019-06-04 11:00:00 16.8 23 Oeste 39 Oeste 0 907 0.4 55
2019-06-04 10:00:00 14.3 14 Oeste 33 Oeste 0 907.2 0.5 62
2019-06-04 09:00:00 12.3 5 Noroeste 9 Oeste 0 907.1 0.5 81
2019-06-04 08:00:00 10.9 7 Nordeste 11 Nordeste 0 906.6 -0.2 86
2019-06-04 07:00:00 9.3 8 Sudoeste 13 Sudoeste 0 906.7 -0.3 89
2019-06-04 06:00:00 10.3 8 Sudoeste 17 Sudoeste 0 906.6 -0.8 88
2019-06-04 05:00:00 10.9 12 Sudoeste 17 Oeste 0 906.8 -1.4 91
2019-06-04 04:00:00 11.5 13 Oeste 17 Oeste 0 907 -1.8 90
2019-06-04 03:00:00 12.6 7 Sudoeste 15 Sudoeste 0 907.4 -1.8 87
2019-06-04 02:00:00 13.4 9 Sudoeste 13 Sudoeste 0 908.2 -1.2 82
2019-06-04 01:00:00 15.1 7 Sudoeste 17 Sudoeste 0 908.8 -0.5 75
2019-06-04 00:00:00 16.9 6 Oeste 13 Sudoeste 0 909.2 0 67
2019-06-03 23:00:00 18.1 5 Oeste 18 Oeste 0 909.4 0.5 62
2019-06-03 22:00:00 20.2 14 Oeste 22 Oeste 0 909.3 0.3 55
2019-06-03 21:00:00 22.4 15 Oeste 33 Oeste 0 909.2 0 45
2019-06-03 20:00:00 24.1 22 Sudoeste 45 Sudoeste 0 908.9 -0.7 34
2019-06-03 19:00:00 25 31 Sudoeste 45 Sudoeste 0 909 -1.2 33
2019-06-03 18:00:00 26.3 28 Sudoeste 46 Sudoeste 0 909.2 -2.1 30
2019-06-03 17:00:00 26.7 18 Sur 48 Oeste 0 909.6 -2.3 29
2019-06-03 16:00:00 26 20 Sur 35 Sudoeste 0 910.2 -2.2 30
2019-06-03 15:00:00 24.8 17 Sudoeste 32 Sudoeste 0 911.3 -1.3 32
2019-06-03 14:00:00 24 12 Sudoeste 26 Sur 0 911.9 -0.9 32
2019-06-03 13:00:00 23.2 8 Oeste 24 Sudoeste 0 912.4 -0.8 33
2019-06-03 12:00:00 21.9 12 Sudoeste 26 Sudoeste 0 912.6 -0.6 33
2019-06-03 11:00:00 20.9 3 Sudeste 11 Sur 0 912.8 -0.1 36
2019-06-03 10:00:00 17.8 3 Este 11 Este 0 913.2 0.5 48
2019-06-03 09:00:00 16.7 3 Nordeste 11 Nordeste 0 913.2 0.9 51
2019-06-03 08:00:00 14.7 4 Nordeste 9 Norte 0 912.9 0.3 55
2019-06-03 07:00:00 13.5 4 Noroeste 9 Oeste 0 912.7 0.2 59
2019-06-03 06:00:00 14.5 3 Oeste 8 Oeste 0 912.3 -0.5 54
2019-06-03 05:00:00 16.1 5 Nordeste 13 Norte 0 912.6 -0.5 47
2019-06-03 04:00:00 16.8 4 Oeste 15 Sudoeste 0 912.5 -0.7 42
2019-06-03 03:00:00 17.1 2 Este 13 Norte 0 912.8 -0.5 43
2019-06-03 02:00:00 17.5 8 Noroeste 13 Noroeste 0 913.1 -0.3 39
2019-06-03 01:00:00 17.8 9 Noroeste 15 Noroeste 0 913.2 0.2 37
2019-06-03 00:00:00 19.1 9 Noroeste 13 Oeste 0 913.3 0.3 35
2019-06-02 23:00:00 19.9 8 Oeste 15 Oeste 0 913.4 0.5 36
2019-06-02 22:00:00 21 9 Oeste 15 Oeste 0 913 0.1 32
2019-06-02 21:00:00 23.6 12 Oeste 18 Oeste 0 913 0.1 27
2019-06-02 20:00:00 24.4 11 Oeste 26 Oeste 0 912.9 -0.2 26
2019-06-02 19:00:00 25.4 15 Oeste 33 Oeste 0 912.9 -0.5 23
2019-06-02 18:00:00 26.8 9 Oeste 24 Oeste 0 912.9 -0.9 22
2019-06-02 17:00:00 26.6 12 Oeste 24 Oeste 0 913.1 -1.3 19
2019-06-02 16:00:00 26.6 10 Oeste 21 Oeste 0 913.4 -1.3 20
2019-06-02 15:00:00 26.4 13 Oeste 24 Oeste 0 913.8 -1 20
2019-06-02 14:00:00 25.8 15 Oeste 24 Oeste 0 914.4 -0.4 21
2019-06-02 13:00:00 25.5 13 Sudoeste 22 Sudoeste 0 914.7 -0.1 20
2019-06-02 12:00:00 24 12 Oeste 28 Sudoeste 0 914.8 0.2 19
2019-06-02 11:00:00 23.4 13 Oeste 24 Sudoeste 0 914.8 0.4 24
2019-06-02 10:00:00 20.6 5 Este 11 Nordeste 0 914.8 0.6 43
2019-06-02 09:00:00 16.5 4 Nordeste 9 Norte 0 914.6 0.5 62
2019-06-02 08:00:00 15.1 3 Norte 8 Oeste 0 914.4 0.2 69
2019-06-02 07:00:00 13.3 6 Oeste 11 Oeste 0 914.2 -0.2 70
2019-06-02 06:00:00 13.2 8 Norte 9 Norte 0 914.1 -0.6 73
2019-06-02 05:00:00 14.1 7 Noroeste 15 Oeste 0 914.2 -0.7 68
2019-06-02 04:00:00 14.8 5 Norte 8 Norte 0 914.4 -0.4 64
2019-06-02 03:00:00 16.4 4 Norte 13 Noroeste 0 914.7 -0.5 60
2019-06-02 02:00:00 17.5 10 Noroeste 15 Noroeste 0 914.9 0 57
2019-06-02 01:00:00 18.1 11 Noroeste 15 Noroeste 0 914.8 0.9 56
2019-06-02 00:00:00 20 12 Noroeste 21 Noroeste 0 915.2 1.6 50
2019-06-01 23:00:00 22.2 9 Noroeste 21 Oeste 0 914.9 1.5 38
2019-06-01 22:00:00 24.8 12 Oeste 22 Oeste 0 913.9 0.5 32
2019-06-01 21:00:00 28.3 14 Oeste 28 Oeste 0 913.6 -0.3 24
2019-06-01 20:00:00 29.6 15 Oeste 24 Oeste 0 913.4 -1.1 23
2019-06-01 19:00:00 30.8 7 Sudeste 28 Sudoeste 0 913.4 -1.7 19
2019-06-01 18:00:00 30.5 5 Norte 21 Sur 0 913.9 -1.7 20
2019-06-01 17:00:00 29.8 14 Sur 35 Sudoeste 0 914.5 -1.8 20
2019-06-01 16:00:00 29.5 10 Sur 28 Sudoeste 0 915.1 -1.7 22
2019-06-01 15:00:00 28.9 10 Sudoeste 30 Sur 0 915.6 -1.5 21
2019-06-01 14:00:00 28.2 21 Sudoeste 37 Sudoeste 0 916.3 -0.9 19
2019-06-01 13:00:00 27.4 9 Sudoeste 22 Sudoeste 0 916.8 -0.5 24
2019-06-01 12:00:00 25.4 6 Sudoeste 15 Este 0 917.1 0 28
2019-06-01 11:00:00 23.2 9 Este 17 Este 0 917.2 0 33
2019-06-01 10:00:00 21.7 8 Este 13 Nordeste 0 917.3 0.3 35
2019-06-01 09:00:00 19.1 12 Norte 18 Norte 0 917.1 0.3 44
2019-06-01 08:00:00 16.3 10 Norte 17 Norte 0 917.2 0.3 51
2019-06-01 07:00:00 13.1 10 Norte 13 Norte 0 917 0.1 60
2019-06-01 06:00:00 13.9 6 Norte 15 Norte 0 916.8 -0.3 57
2019-06-01 05:00:00 13.3 13 Norte -- -- 0 916.9 -0.4 60
2019-06-01 04:00:00 14.5 12 Norte 15 Norte 0 916.9 -0.6 57
2019-06-01 03:00:00 15.1 12 Norte 15 Norte 0 917.1 -0.6 55
2019-06-01 02:00:00 16.5 10 Norte 15 Norte 0 917.3 0.1 52
2019-06-01 01:00:00 17.4 12 Norte 17 Norte 0 917.5 1 50
2019-06-01 00:00:00 18.7 13 Norte 17 Norte 0 917.7 1.2 46
2019-05-31 23:00:00 20.3 12 Norte 18 Norte 0 917.2 0.7 40
2019-05-31 22:00:00 25.9 3 Sur 9 Sudeste 0 916.5 -0.2 17
2019-05-31 21:00:00 28.3 7 Sur 18 Sur 0 916.5 -0.6 16
2019-05-31 20:00:00 29.1 9 Sudeste 21 Sudeste 0 916.5 -1.1 15
2019-05-31 19:00:00 29 8 Sur 22 Sudeste 0 916.7 -1.4 15
2019-05-31 18:00:00 29.4 12 Sur 22 Sudeste 0 917.1 -1.5 14
2019-05-31 17:00:00 28.5 9 Sur 21 Sur 0 917.6 -1.5 15
2019-05-31 16:00:00 28.4 7 Sudoeste 22 Sudoeste 0 918.1 -1.3 15
2019-05-31 15:00:00 27.3 9 Sudeste 18 Este 0 918.6 -1 19
2019-05-31 14:00:00 26.1 9 Sur 18 Sur 0 919.1 -0.8 21
2019-05-31 13:00:00 25.5 10 Oeste 17 Oeste 0 919.4 -0.6 22
2019-05-31 12:00:00 23.9 7 Sudeste 17 Sur 0 919.6 -0.4 25
2019-05-31 11:00:00 22.9 8 Sudoeste 17 Sudoeste 0 919.9 -0.2 30
2019-05-31 10:00:00 21 6 Oeste 11 Oeste 0 920 0 37
2019-05-31 09:00:00 18.1 5 Nordeste 9 Noroeste 0 920 0.1 55
2019-05-31 08:00:00 14.1 6 Noroeste 9 Norte 0 920.1 0 65
2019-05-31 07:00:00 11.2 6 Noroeste 13 Noroeste 0 920 -0.4 72
2019-05-31 06:00:00 10.7 9 Noroeste 15 Noroeste 0 919.9 -0.9 74
2019-05-31 05:00:00 10.8 11 Norte 15 Norte 0 920.1 -0.7 75
2019-05-31 04:00:00 11.8 8 Noroeste 11 Noroeste 0 920.4 -0.6 72
2019-05-31 03:00:00 14.7 4 Sudoeste 15 Norte 0 920.8 -0.2 63
2019-05-31 02:00:00 16.3 10 Norte 13 Norte 0 920.8 0.2 59
2019-05-31 01:00:00 18.6 9 Este 17 Sudeste 0 921 1.5 53
2019-05-31 00:00:00 20 0 Calma 13 Nordeste 0 921 1.9 48
2019-05-30 23:00:00 20.4 13 Nordeste 17 Nordeste 0 920.6 1.9 42
2019-05-30 22:00:00 22 8 Norte 22 Norte 0 919.5 0.5 33
2019-05-30 21:00:00 25.4 12 Norte 26 Norte 0 919.1 -0.1 24
2019-05-30 20:00:00 27.2 13 Norte 22 Norte 0 918.7 -1.1 22
2019-05-30 19:00:00 27.9 15 Este 26 Oeste 0 919 -1.2 24
2019-05-30 18:00:00 27.6 4 Noroeste 18 Oeste 0 919.2 -1.4 25
2019-05-30 17:00:00 27 10 Este 22 Sudeste 0 919.8 -1.2 25
2019-05-30 16:00:00 25.9 10 Sudeste 26 Sudeste 0 920.2 -1.1 27
2019-05-30 15:00:00 25.2 12 Sudeste 22 Sur 0 920.6 -1 28
2019-05-30 14:00:00 23.8 7 Sur 18 Sudeste 0 921 -0.9 32
2019-05-30 13:00:00 21.8 6 Sudeste 15 Sur 0 921.3 -0.6 33
2019-05-30 12:00:00 19.3 8 Sur 17 Oeste 0 921.6 -0.2 44
2019-05-30 11:00:00 17.3 8 Sur 17 Sudoeste 0 921.9 0.2 50
2019-05-30 10:00:00 15.3 8 Oeste 15 Oeste 0 921.9 0.4 58
2019-05-30 09:00:00 13.7 5 Este 8 Este 0 921.8 0.5 65
2019-05-30 08:00:00 10.9 3 Noroeste 9 Noroeste 0 921.7 0.5 75
2019-05-30 07:00:00 7.3 6 Noroeste 9 Noroeste 0 921.5 0.2 80
2019-05-30 06:00:00 8.7 7 Oeste 11 Noroeste 0 921.3 -0.3 77
2019-05-30 05:00:00 9.3 7 Oeste 9 Oeste 0 921.2 -0.5 74
2019-05-30 04:00:00 10 8 Oeste 11 Oeste 0 921.3 -0.4 72
2019-05-30 03:00:00 10.5 8 Oeste 11 Oeste 0 921.6 -0.1 69
2019-05-30 02:00:00 12.2 7 Oeste 9 Oeste 0 921.7 0.6 62
2019-05-30 01:00:00 14.6 8 Sur 9 Sur 0 921.7 1.7 53
2019-05-30 00:00:00 16 3 Sudoeste 15 Sudeste 0 921.7 2.3 52
2019-05-29 23:00:00 17.5 8 Norte 17 Sudeste 0 921.1 2.2 51
2019-05-29 22:00:00 18.4 10 Norte 21 Norte 0 920 1.2 46
2019-05-29 21:00:00 21.6 14 Norte 26 Norte 0 919.4 0.7 34
2019-05-29 20:00:00 23.4 14 Norte 22 Noroeste 0 918.9 -0.2 29
2019-05-29 19:00:00 24.2 9 Norte 22 Oeste 0 918.8 -0.6 26
2019-05-29 18:00:00 23.2 4 Sur 22 Este 0 918.7 -1.1 32
2019-05-29 17:00:00 22.9 5 Sudeste 21 Sudeste 0 919.1 -0.9 32
2019-05-29 16:00:00 21.7 8 Sur 24 Sudeste 0 919.4 -0.8 35
2019-05-29 15:00:00 20.1 6 Sur 26 Sur 0 919.8 -0.4 37
2019-05-29 14:00:00 18.6 11 Sur 24 Sur 0 920 -0.3 40
2019-05-29 13:00:00 17 9 Sur 18 Sur 0 920.2 0 44
2019-05-29 12:00:00 14.9 9 Sur 17 Sur 0 920.2 0.1 50
2019-05-29 11:00:00 12.9 8 Sur 18 Sudoeste 0 920.3 0.6 55
2019-05-29 10:00:00 11.5 9 Sudoeste 17 Sudoeste 0 920.2 1.1 60
2019-05-29 09:00:00 10.6 7 Este 11 Este 0 920.1 1 64
2019-05-29 08:00:00 6.8 7 Sudoeste 9 Sudoeste 0 919.7 0.7 78
2019-05-29 07:00:00 5.2 4 Norte 9 Norte 0 919.1 0 82
2019-05-29 06:00:00 5.1 6 Noroeste 11 Norte 0 919.1 0.1 80
2019-05-29 05:00:00 5.5 9 Norte 13 Norte 0 919 -0.1 79
2019-05-29 04:00:00 5.8 10 Norte 13 Norte 0 919.1 0.3 76
2019-05-29 03:00:00 6.2 9 Norte 15 Noroeste 0 919 0.3 75
2019-05-29 02:00:00 7.7 0 Calma 17 Norte 0 919.1 0.8 72
2019-05-29 01:00:00 8.2 12 Norte 24 Norte 0 918.8 1.4 70
2019-05-29 00:00:00 8.9 15 Norte 22 Norte 0 918.7 1.7 66
2019-05-28 23:00:00 10.2 12 Norte 35 Norte 0 918.3 1.8 60
2019-05-28 22:00:00 11.3 24 Norte 41 Norte 0 917.4 1.1 55
2019-05-28 21:00:00 13.9 27 Norte 42 Norte 0 917 0.9 41
2019-05-28 20:00:00 15.6 24 Norte 33 Norte 0 916.5 0.7 40
2019-05-28 19:00:00 17 24 Norte 41 Norte 0 916.3 0.6 35
2019-05-28 18:00:00 17.6 19 Norte 35 Norte 0 916.1 0.8 33
2019-05-28 17:00:00 17.7 19 Norte 37 Norte 0 915.8 0.6 35
2019-05-28 16:00:00 17.9 24 Norte 46 Norte 0 915.7 0.6 32
2019-05-28 15:00:00 18.2 27 Norte 41 Norte 0 915.3 0.2 28
2019-05-28 14:00:00 17.3 22 Nordeste 37 Norte 0 915.2 0 29
2019-05-28 13:00:00 16.3 22 Norte 39 Nordeste 0 915.1 -0.1 33
2019-05-28 12:00:00 15.3 15 Norte 28 Nordeste 0 915.1 0.3 37
2019-05-28 11:00:00 13.6 8 Nordeste 17 Nordeste 0 915.2 0.8 40
2019-05-28 10:00:00 11.8 9 Nordeste 17 Este 0 915.2 1.3 46
2019-05-28 09:00:00 10.2 4 Norte 13 Norte 0 914.8 1.3 53
2019-05-28 08:00:00 7.8 9 Noroeste 15 Noroeste 0 914.4 1 65
2019-05-28 07:00:00 5.2 6 Noroeste 13 Noroeste 0 913.9 0.4 75
2019-05-28 06:00:00 5.6 7 Noroeste 9 Noroeste 0 913.5 0.3 73
2019-05-28 05:00:00 6.8 2 Norte 11 Norte 0 913.4 0.1 69
2019-05-28 04:00:00 6.4 6 Norte 11 Norte 0 913.5 0 69
2019-05-28 03:00:00 6.6 8 Norte 13 Norte 0 913.2 -0.4 66
2019-05-28 02:00:00 8.5 0 Calma 21 Norte 0 913.3 0.1 59
2019-05-28 01:00:00 7.9 11 Norte 21 Norte 0 913.5 0.8 61
2019-05-28 00:00:00 9.3 5 Nordeste 22 Norte 0 913.6 1.4 58
2019-05-27 23:00:00 11 13 Norte 24 Nordeste 0 913.2 1.4 54
2019-05-27 22:00:00 12.7 14 Norte 33 Norte 0 912.7 1.1 47
2019-05-27 21:00:00 14.2 20 Norte 42 Norte 0 912.2 0.8 49
2019-05-27 20:00:00 16.5 21 Norte 45 Norte 0 911.8 0.1 47
2019-05-27 19:00:00 18.8 25 Norte 45 Norte 0 911.6 -0.1 37
2019-05-27 18:00:00 20.3 20 Norte 37 Norte 0 911.4 -0.7 32
2019-05-27 17:00:00 20.2 22 Norte 35 Norte 0 911.7 -0.5 33
2019-05-27 16:00:00 20.7 22 Norte 35 Norte 0 911.7 -0.8 35
2019-05-27 15:00:00 20.6 23 Norte 41 Norte 0 912.1 -0.3 35
2019-05-27 14:00:00 20.5 27 Norte 45 Nordeste 0 912.2 -0.6 38
2019-05-27 13:00:00 20.7 23 Norte 35 Norte 0 912.5 -0.6 39
2019-05-27 12:00:00 19.2 20 Nordeste 32 Nordeste 0 912.4 -0.6 47
2019-05-27 11:00:00 18 10 Este 21 Este 0 912.8 -0.3 52
2019-05-27 10:00:00 16.6 7 Noroeste 15 Oeste 0 913.1 0 55
2019-05-27 09:00:00 15 -- -- 9 Noroeste 0 913 0 57
2019-05-27 08:00:00 11.2 -- -- 11 Oeste 0 913.1 -0.1 71
2019-05-27 07:00:00 10.1 -- -- 18 Noroeste 0 913.1 -0.4 74
2019-05-27 06:00:00 10.1 -- -- 21 Noroeste 0 913 -0.9 72
2019-05-27 05:00:00 10.8 -- -- 15 Noroeste 0 913.2 -1 69
2019-05-27 04:00:00 11.5 -- -- 17 Norte 0 913.5 -1.2 68
2019-05-27 03:00:00 10.7 -- -- 17 Noroeste 0 913.9 -1.3 70
2019-05-27 02:00:00 11.9 -- -- 11 Noroeste 0 914.2 -0.4 62
2019-05-27 01:00:00 13.5 -- -- 11 Norte 0 914.7 0.5 55
2019-05-27 00:00:00 15.9 -- -- 24 Nordeste 0 915.2 1.2 45
2019-05-26 23:00:00 16.3 -- -- 28 Nordeste 0 914.6 0.6 46
2019-05-26 22:00:00 17.5 -- -- 39 Norte 0 914.2 -0.1 42
2019-05-26 21:00:00 20.2 -- -- 39 Norte 0 914 -0.5 33
2019-05-26 20:00:00 21.9 -- -- 37 Norte 0 914 -0.6 29
2019-05-26 19:00:00 23.3 -- -- 35 Nordeste 0 914.3 -0.5 28
2019-05-26 18:00:00 24.1 -- -- 41 Noroeste 0 914.5 -0.5 28
2019-05-26 17:00:00 25.2 -- -- 35 Norte 0 914.6 -1.1 25
2019-05-26 16:00:00 24.9 -- -- 33 Norte 0 914.8 -1.5 26
2019-05-26 15:00:00 24.1 -- -- 30 Norte 0 915 -1.7 28
2019-05-26 14:00:00 21.6 -- -- 21 Sur 0 915.7 -1.4 39
2019-05-26 13:00:00 19.4 -- -- 21 Sur 0 916.3 -1.5 44
2019-05-26 12:00:00 16.4 -- -- 22 Sudoeste 0 916.7 -1.3 53
2019-05-26 11:00:00 13.7 -- -- 21 Sudoeste 0 917.1 -0.6 62
2019-05-26 10:00:00 10.9 -- -- 18 Oeste 0 917.8 0.3 69
2019-05-26 09:00:00 9.2 -- -- 17 Sudoeste 0 918 0.5 77
2019-05-26 08:00:00 7.6 -- -- 11 Oeste 0 917.7 0 84
2019-05-26 07:00:00 6 -- -- -- -- 0 917.5 0 86
2019-05-26 06:00:00 6.7 -- -- 9 Oeste 0 917.5 -0.2 85
2019-05-26 05:00:00 7.4 -- -- 9 Sudoeste 0 917.7 0 84
2019-05-26 04:00:00 8.6 -- -- 11 Oeste 0 917.5 -0.6 81
2019-05-26 03:00:00 8.8 -- -- 15 Sudoeste 0 917.7 -0.4 78
2019-05-26 02:00:00 10.3 -- -- 15 Norte 0 917.7 -0.1 74
2019-05-26 01:00:00 10.5 -- -- 21 Norte 0 918.1 0.9 72
2019-05-26 00:00:00 11.9 -- -- 30 Norte 0 918.1 1.3 67
2019-05-25 23:00:00 13 -- -- 33 Norte 0 917.8 1.3 62
2019-05-25 22:00:00 14.8 -- -- 30 Norte 0 917.2 0.8 53
2019-05-25 21:00:00 18 -- -- 30 Norte 0 916.8 0.5 42
2019-05-25 20:00:00 19.6 -- -- 33 Norte 0 916.5 0.4 37
2019-05-25 19:00:00 20.6 -- -- 30 Nordeste 0 916.4 0.2 33
2019-05-25 18:00:00 21.3 -- -- 32 Nordeste 0 916.3 -0.1 29
2019-05-25 17:00:00 21.4 -- -- 30 Norte 0 916.1 -0.9 28
2019-05-25 16:00:00 20.9 -- -- 28 Norte 0 916.2 -1.1 28
2019-05-25 15:00:00 20 -- -- 26 Norte 0 916.4 -1.1 29
2019-05-25 14:00:00 18.9 -- -- 24 Noroeste 0 917 -0.9 33
2019-05-25 13:00:00 17.1 -- -- 21 Este 0 917.3 -0.4 37
2019-05-25 12:00:00 15.5 -- -- 22 Este 0 917.5 0.1 43
2019-05-25 11:00:00 14 -- -- 22 Nordeste 0 917.9 1.1 47
2019-05-25 10:00:00 12.6 -- -- 28 Nordeste 0 917.7 1 51
2019-05-25 09:00:00 11.3 -- -- 30 Norte 0 917.4 0.9 56
2019-05-25 08:00:00 9.4 -- -- 22 Norte 0 916.8 0.3 65
2019-05-25 07:00:00 6.4 -- -- 15 Noroeste 0 916.7 -0.1 75
2019-05-25 06:00:00 5.1 -- -- 13 Noroeste 0 916.5 -0.6 79
2019-05-25 05:00:00 6.5 -- -- 15 Noroeste 0 916.5 -1.1 76
2019-05-25 04:00:00 6 -- -- 11 Oeste 0 916.8 -0.3 78
2019-05-25 03:00:00 7.8 -- -- 17 Oeste 0 917.1 0.1 72
2019-05-25 02:00:00 8.6 -- -- 15 Norte 0 917.6 1.1 71
2019-05-25 01:00:00 9.1 -- -- 21 Norte 0 917.1 1.5 69
2019-05-25 00:00:00 9.9 -- -- 26 Norte 0 917 1.6 65
2019-05-24 23:00:00 10.9 -- -- 32 Norte 0 916.5 1.5 61
2019-05-24 22:00:00 12.2 -- -- 39 Norte 0 915.6 0.9 54
2019-05-24 21:00:00 13.1 -- -- 30 Norte 0 915.4 1 51
2019-05-24 20:00:00 14.9 -- -- 35 Norte 0 915 0.5 45
2019-05-24 19:00:00 15.5 -- -- 42 Norte 0 914.7 0 41
2019-05-24 18:00:00 16.2 -- -- 41 Norte 0 914.4 -0.6 38
2019-05-24 17:00:00 17.1 -- -- 39 Norte 0 914.5 -0.8 37
2019-05-24 16:00:00 16.3 -- -- 39 Norte 0 914.7 -0.4 37
2019-05-24 15:00:00 15.9 -- -- 39 Norte 0 915 0.2 38
2019-05-24 14:00:00 15.3 -- -- 39 Norte 0 915.3 0.1 43
2019-05-24 13:00:00 15.2 -- -- 35 Norte 0 915.1 0 45
2019-05-24 12:00:00 14.3 -- -- 33 Noroeste 0 914.8 -0.1 47
2019-05-24 11:00:00 13 19 Norte 33 Norte 0 915.2 0.6 50
2019-05-24 10:00:00 11.8 24 Norte 37 Norte 0 915.1 1.1 51
2019-05-24 09:00:00 9.6 8 Nordeste 13 Nordeste 0 914.9 1.1 58
2019-05-24 08:00:00 6.4 4 Noroeste 13 Noroeste 0 914.6 1.1 71
2019-05-24 07:00:00 3.5 10 Noroeste 13 Noroeste 0 914 0.1 78
2019-05-24 06:00:00 3.7 8 Norte 13 Noroeste 0 913.8 -0.4 80
2019-05-24 05:00:00 4.4 10 Noroeste 13 Noroeste 0 913.5 -0.7 80
2019-05-24 04:00:00 5.5 8 Noroeste 15 Norte 0 913.9 -0.4 77
2019-05-24 03:00:00 7.5 7 Noroeste 9 Noroeste 0 914.2 0.1 74
2019-05-24 02:00:00 8.7 6 Noroeste 17 Norte 0 914.2 0.2 75
2019-05-24 01:00:00 9.5 10 Norte 21 Norte 0 914.3 1 76
2019-05-24 00:00:00 10.1 8 Norte 18 Norte 0 914.1 1.4 73
2019-05-23 23:00:00 12.3 11 Nordeste 21 Nordeste 0 914 2 66
2019-05-23 22:00:00 13.6 12 Norte 28 Norte 0 913.3 1.8 63
2019-05-23 21:00:00 15.8 19 Norte 35 Norte 0 912.7 1.3 60
2019-05-23 20:00:00 17.1 22 Norte 37 Norte 0 912 0.3 59
2019-05-23 19:00:00 21.5 17 Noroeste 33 Noroeste 0 911.5 -0.6 35
2019-05-23 18:00:00 22.8 20 Oeste 32 Oeste 0 911.4 -1.1 32
2019-05-23 17:00:00 23.2 15 Oeste 33 Oeste 0 911.7 -1.4 28
2019-05-23 16:00:00 22.2 13 Sudoeste 41 Sudoeste 0 912.1 -1.6 29
2019-05-23 15:00:00 21.8 9 Oeste 30 Oeste 0 912.5 -1.4 29
2019-05-23 14:00:00 20.4 14 Sudoeste 26 Oeste 0 913.1 -0.8 38
2019-05-23 13:00:00 18.5 9 Oeste 17 Oeste 0 913.7 -0.1 45
2019-05-23 12:00:00 17.6 3 Sur 13 Sudoeste 0 913.9 0.6 51
2019-05-23 11:00:00 16.7 6 Este 11 Este 0 913.9 0.7 56
2019-05-23 10:00:00 15.1 4 Norte 9 Oeste 0 913.8 0.8 67
2019-05-23 09:00:00 13.8 5 Este -- -- 0 913.3 0.2 75
2019-05-23 08:00:00 11.5 5 Norte 8 Norte 0 913.2 0 80
2019-05-23 07:00:00 11.7 3 Norte -- -- 0 913 -0.3 78
2019-05-23 06:00:00 11.4 6 Noroeste 13 Norte 0 913.1 -0.6 80
2019-05-23 05:00:00 11.4 7 Norte 9 Norte 0 913.2 -0.5 79
2019-05-23 04:00:00 12.6 9 Norte 13 Nordeste 0 913.3 -0.3 76
2019-05-23 03:00:00 13.4 5 Norte 17 Noroeste 0 913.7 0.1 75
2019-05-23 02:00:00 13.7 13 Noroeste 17 Noroeste 0 913.7 0.7 73
2019-05-23 01:00:00 14.8 12 Noroeste 17 Noroeste 0 913.6 1.3 67
2019-05-23 00:00:00 15.4 11 Noroeste 17 Noroeste 0 913.6 1.4 64
2019-05-22 23:00:00 17.2 10 Norte 17 Oeste 0 913 1.1 50
2019-05-22 22:00:00 19.6 12 Oeste 17 Noroeste 0 912.3 0.3 38
2019-05-22 21:00:00 21.4 9 Oeste 21 Sudoeste 0 912.2 -0.2 34
2019-05-22 20:00:00 23.9 10 Sur 21 Sudoeste 0 911.9 -0.8 26
2019-05-22 19:00:00 23.6 11 Oeste 28 Sudoeste 0 912 -1.1 26
2019-05-22 18:00:00 23.9 12 Sudoeste 26 Sudoeste 0 912.4 -1 25
2019-05-22 17:00:00 23.1 14 Sudoeste 30 Sudoeste 0 912.7 -1.1 25
2019-05-22 16:00:00 22.6 12 Sudoeste 28 Sudoeste 0 913.1 -1.2 26
2019-05-22 15:00:00 21.7 13 Sudoeste 26 Sudoeste 0 913.4 -1 30
2019-05-22 14:00:00 20.8 10 Sudoeste 22 Sudoeste 0 913.8 -0.6 32
2019-05-22 13:00:00 19.3 12 Sudoeste 26 Sudoeste 0 914.3 -0.1 39
2019-05-22 12:00:00 18 8 Sudoeste 17 Sur 0 914.4 0.1 44
2019-05-22 11:00:00 16.5 3 Sudoeste 13 Sur 0 914.4 0.2 53
2019-05-22 10:00:00 14 5 Este 9 Nordeste 0 914.4 0.4 61
2019-05-22 09:00:00 11.3 6 Nordeste 9 Nordeste 0 914.3 0.3 72
2019-05-22 08:00:00 8.6 3 Norte 8 Norte 0 914.2 0 80
2019-05-22 07:00:00 7.1 5 Norte 8 Norte 0 914 -0.3 84
2019-05-22 06:00:00 8.1 2 Este 15 Noroeste 0 914 -0.1 82
2019-05-22 05:00:00 7.5 10 Noroeste 13 Noroeste 0 914.2 0.2 85
2019-05-22 04:00:00 8.9 -- -- -- -- 0 914.3 0.6 82
2019-05-22 03:00:00 9.1 5 Norte 8 Norte 0 914.1 0.5 77
2019-05-22 02:00:00 10.3 4 Sudeste 9 Norte 0 914 0.8 74
2019-05-22 01:00:00 11.8 6 Nordeste 13 Norte 0 913.7 1.7 70
2019-05-22 00:00:00 14.4 9 Norte 26 Este 0 913.6 2.1 57
2019-05-21 23:00:00 15.7 14 Este 26 Este 0 913.2 2 52
2019-05-21 22:00:00 18 9 Norte 17 Norte 0 912 0.8 41
2019-05-21 21:00:00 20.6 8 Sudeste 17 Sudoeste 0 911.5 0.3 27
2019-05-21 20:00:00 21.3 5 Sur 15 Sur 0 911.2 -0.3 26
2019-05-21 19:00:00 20.4 4 Oeste 21 Sudoeste 0 911.2 -0.4 27
2019-05-21 18:00:00 21 6 Sudoeste 21 Oeste 0 911.2 -0.6 27
2019-05-21 17:00:00 20.4 11 Sudoeste 21 Este 0 911.5 -0.3 29
2019-05-21 16:00:00 20.3 10 Este 22 Sudeste 0 911.6 -0.5 30
2019-05-21 15:00:00 19 6 Sudeste 21 Sur 0 911.8 -0.4 32
2019-05-21 14:00:00 17.9 8 Sudoeste 22 Sudoeste 0 911.8 -0.4 35
2019-05-21 13:00:00 17.4 8 Este 21 Sudeste 0 912.1 0 38
2019-05-21 12:00:00 15.8 7 Sudeste 17 Nordeste 0 912.2 0.2 45
2019-05-21 11:00:00 14.4 6 Este 17 Este 0 912.2 0.5 50
2019-05-21 10:00:00 13.4 6 Este 11 Nordeste 0 912.1 0.8 56
2019-05-21 09:00:00 10.3 8 Norte 13 Norte 0 912 0.9 69
2019-05-21 08:00:00 5.9 9 Norte 11 Norte 0 911.7 0.8 87
2019-05-21 07:00:00 -- 8 Norte 11 Norte 0 911.3 0.4 --
2019-05-21 06:00:00 6.3 5 Norte 8 Norte 0 911.1 0.3 80
2019-05-21 05:00:00 8.1 4 Nordeste 5 Nordeste 0 910.9 0 76
2019-05-21 04:00:00 8.6 0 Calma 9 Norte 0 910.9 0.1 76
2019-05-21 03:00:00 8.2 8 Norte 11 Norte 0 910.8 0.6 78
2019-05-21 02:00:00 8.7 7 Norte 13 Norte 0 910.9 1.1 71
2019-05-21 01:00:00 9.3 9 Norte 21 Este 0 910.8 1.9 71
2019-05-21 00:00:00 9.6 9 Norte 18 Noroeste 0 910.2 1.5 69
2019-05-20 23:00:00 11.7 13 Norte 24 Noroeste 0 909.8 1.4 56
2019-05-20 22:00:00 13.6 6 Noroeste 11 Oeste 0 908.9 0.4 47
2019-05-20 21:00:00 16.1 3 Sudoeste 13 Sudeste 0 908.7 0.2 30
2019-05-20 20:00:00 17.4 5 Sudeste 15 Sudoeste 0 908.4 -0.3 26
2019-05-20 19:00:00 17.6 8 Sur 21 Sudoeste 0 908.5 -0.6 27
2019-05-20 18:00:00 18 6 Sudoeste 17 Sudeste 0 908.5 -0.9 29
2019-05-20 17:00:00 16.6 7 Sudeste 21 Sudoeste 0 908.7 -0.9 35
2019-05-20 16:00:00 15.4 10 Sudoeste 21 Sudoeste 0 909.1 -0.7 38
2019-05-20 15:00:00 15.8 8 Sur 22 Sur 0 909.4 -0.6 40
2019-05-20 14:00:00 14.6 10 Sur 21 Sur 0 909.6 -0.4 43
2019-05-20 13:00:00 12.4 9 Sur 18 Sur 0 909.8 -0.3 51
2019-05-20 12:00:00 11.5 7 Sudoeste 18 Sudoeste 0 910 0.1 56
2019-05-20 11:00:00 11.3 6 Sudoeste 17 Oeste 0 910 0.4 60
2019-05-20 10:00:00 9.2 9 Sudoeste 18 Sur 0 910.1 1.2 68
2019-05-20 09:00:00 7.9 4 Sur -- -- 0 909.9 0.8 72
2019-05-20 08:00:00 5.7 3 Oeste 8 Oeste 0 909.6 0.3 81
2019-05-20 07:00:00 3.3 4 Noroeste 5 Noroeste 0 908.9 -0.5 81
2019-05-20 06:00:00 5.1 0 Calma 4 Oeste 0 909.1 -0.5 76
2019-05-20 05:00:00 6.4 2 Oeste 9 Noroeste 0 909.3 -0.5 74
2019-05-20 04:00:00 6.2 5 Noroeste 9 Noroeste 0 909.4 -0.4 77
2019-05-20 03:00:00 6.6 5 Norte 8 Norte 0 909.6 -0.3 77
2019-05-20 02:00:00 7.6 5 Nordeste 13 Norte 0 909.8 0.2 71
2019-05-20 01:00:00 7.4 10 Norte 15 Norte 0 909.8 0.9 71
2019-05-20 00:00:00 8.4 9 Nordeste 17 Nordeste 0 909.9 1.6 67
2019-05-19 23:00:00 9 10 Norte 18 Norte 0 909.6 2 65
2019-05-19 22:00:00 9.6 10 Norte 26 Nordeste 0 908.9 1.5 61
2019-05-19 21:00:00 12.4 16 Norte 28 Norte 0 908.3 0.7 50
2019-05-19 20:00:00 14.6 14 Norte 26 Norte 0 907.6 -0.2 42
2019-05-19 19:00:00 14.7 5 Este 13 Este 0 907.4 -0.9 31
2019-05-19 18:00:00 15.1 0 Calma 21 Sur 0 907.6 -0.8 31
2019-05-19 17:00:00 15.5 6 Sur 18 Sur 0 907.8 -0.9 28
2019-05-19 16:00:00 15.9 8 Nordeste 18 Oeste 0 908.3 -0.3 30
2019-05-19 15:00:00 14.5 12 Sudoeste 22 Sudeste 0 908.4 -0.4 31
2019-05-19 14:00:00 13.9 9 Este 18 Este 0 908.7 -0.1 33
2019-05-19 13:00:00 13 9 Sur 24 Sur 0 908.6 -0.3 35
2019-05-19 12:00:00 11.2 6 Sudoeste 17 Noroeste 0 908.8 0 37
2019-05-19 11:00:00 10 5 Norte 13 Norte 0 908.8 0.1 48
2019-05-19 10:00:00 8.2 5 Oeste 18 Noroeste 0 908.9 0.7 58
2019-05-19 09:00:00 6.3 9 Noroeste 18 Noroeste 0 908.8 0.4 66
2019-05-19 08:00:00 3.2 9 Noroeste 17 Noroeste 0 908.7 0.2 81
2019-05-19 07:00:00 1.2 11 Noroeste 17 Norte 0 908.2 -0.2 86
2019-05-19 06:00:00 2.1 8 Norte 13 Noroeste 0 908.4 -0.2 84
2019-05-19 05:00:00 2.2 3 Oeste 17 Norte 0 908.5 -0.3 84
2019-05-19 04:00:00 3.5 10 Noroeste 18 Noroeste 0 908.4 -0.6 82
2019-05-19 03:00:00 3.1 13 Noroeste 15 Noroeste 0 908.6 -0.2 82
2019-05-19 02:00:00 4.2 5 Sudoeste 13 Oeste 0 908.8 0.1 77
2019-05-19 01:00:00 5.6 4 Sudeste 18 Noroeste 0 909 0.6 72
2019-05-19 00:00:00 5 9 Noroeste 18 Noroeste 0 908.8 0.8 76
2019-05-18 23:00:00 5.9 7 Noroeste 22 Noroeste 0 908.7 1.3 70
2019-05-18 22:00:00 7.5 16 Noroeste 28 Noroeste 0 908.4 1.2 63
2019-05-18 21:00:00 10.1 14 Noroeste 30 Norte 0 908 0.9 53
2019-05-18 20:00:00 11.9 20 Oeste 33 Noroeste 0 907.4 0.5 45
2019-05-18 19:00:00 12.9 19 Noroeste 37 Norte 0 907.2 0.2 45
2019-05-18 18:00:00 11.3 15 Noroeste 46 Noroeste 0 907.1 0 51
2019-05-18 17:00:00 10.9 24 Noroeste 42 Noroeste 0 906.9 -0.5 63
2019-05-18 16:00:00 11.2 24 Oeste 39 Oeste 0 907 -0.4 53
2019-05-18 15:00:00 10.1 24 Oeste 41 Oeste 0 907.1 0.1 54
2019-05-18 14:00:00 9.1 23 Oeste 37 Oeste 0 907.4 0.6 57
2019-05-18 13:00:00 8.1 28 Oeste 41 Oeste 0 907.4 0.8 65
2019-05-18 12:00:00 8 22 Oeste 37 Oeste 0 907 0.8 64
2019-05-18 11:00:00 7.8 22 Oeste 33 Oeste 0 906.8 0.6 66
2019-05-18 10:00:00 7.7 20 Oeste 39 Oeste 0 906.6 0.2 67
2019-05-18 09:00:00 5.6 19 Oeste 32 Oeste 0 906.2 -0.2 78
2019-05-18 08:00:00 3.7 13 Oeste 24 Noroeste 0 906.2 -0.4 85
2019-05-18 07:00:00 2.2 13 Oeste 22 Oeste 0 906.4 -0.6 89
2019-05-18 06:00:00 2 7 Oeste 28 Oeste 0 906.4 -1 87
2019-05-18 05:00:00 2.4 18 Oeste 30 Noroeste 0 906.6 -1.1 87
2019-05-18 04:00:00 2.7 19 Oeste 30 Oeste 0 907 -0.7 87
2019-05-18 03:00:00 3.2 18 Oeste 26 Oeste 0 907.4 -0.5 85
2019-05-18 02:00:00 4 18 Noroeste 32 Noroeste 0 907.7 0 80
2019-05-18 01:00:00 3.7 4 Norte 11 Noroeste 0 907.7 0.5 75
2019-05-18 00:00:00 5.3 7 Norte 28 Nordeste 0 907.9 1 66
2019-05-17 23:00:00 5.7 14 Noroeste 26 Noroeste 0 907.7 1.2 66
2019-05-17 22:00:00 6.9 19 Noroeste 46 Noroeste 0 907.2 0.7 57
2019-05-17 21:00:00 8.3 26 Noroeste 46 Oeste 0 906.9 0.6 54
2019-05-17 20:00:00 9.9 21 Oeste 39 Noroeste 0 906.5 0.1 52
2019-05-17 19:00:00 12.8 25 Noroeste 46 Noroeste 0 906.5 -0.1 45
2019-05-17 18:00:00 13.8 25 Noroeste 46 Oeste 0 906.3 -0.3 44
2019-05-17 17:00:00 13.5 31 Oeste 50 Oeste 0 906.4 -0.3 47
2019-05-17 16:00:00 14 21 Oeste 42 Oeste 0 906.6 -0.5 42
2019-05-17 15:00:00 12 23 Oeste 41 Noroeste 0 906.6 -0.4 58
2019-05-17 14:00:00 12.1 23 Oeste 41 Oeste 0 906.7 0.1 52
2019-05-17 13:00:00 11.5 19 Oeste 39 Noroeste 0 907.1 1 55
2019-05-17 12:00:00 11.1 15 Noroeste 26 Noroeste 0 907 1.4 54
2019-05-17 11:00:00 9.9 15 Norte 22 Norte 0 906.6 1.7 66
2019-05-17 10:00:00 9.8 9 Norte 28 Noroeste 0 906.1 1.7 68
2019-05-17 09:00:00 9.1 19 Noroeste 32 Noroeste 0 905.6 1.9 68
2019-05-17 08:00:00 6.1 7 Oeste 15 Noroeste 0 904.9 1.6 81
2019-05-17 07:00:00 6.4 5 Oeste 22 Oeste 0 904.4 1 82
2019-05-17 06:00:00 6.1 15 Oeste 24 Oeste 0 903.7 -0.3 86
2019-05-17 05:00:00 5.9 11 Sudoeste 24 Oeste 0 903.3 -1 84
2019-05-17 04:00:00 6.5 18 Oeste 28 Oeste 0 903.4 -1.1 83
2019-05-17 03:00:00 6.8 13 Oeste 28 Oeste 0 904 -0.4 86
2019-05-17 02:00:00 6.4 16 Oeste 28 Oeste 0 904.3 -0.2 89
2019-05-17 01:00:00 6.5 16 Oeste 30 Oeste 0 904.5 0.2 85
2019-05-17 00:00:00 6.8 14 Oeste 22 Noroeste 0 904.4 0.2 78